sensor_id;sensor_type;location;lat;lon;timestamp;P1;durP1;ratioP1;P2;durP2;ratioP2
37529;SDS011;23374;52.758;6.872;2022-09-28T00:00:21;7.40;;;4.30;;
37529;SDS011;23374;52.758;6.872;2022-09-28T00:02:42;7.20;;;4.47;;
37529;SDS011;23374;52.758;6.872;2022-09-28T00:05:02;7.30;;;3.73;;
37529;SDS011;23374;52.758;6.872;2022-09-28T00:07:23;11.00;;;4.70;;
37529;SDS011;23374;52.758;6.872;2022-09-28T00:09:43;7.27;;;4.57;;
37529;SDS011;23374;52.758;6.872;2022-09-28T00:12:03;9.73;;;4.53;;
37529;SDS011;23374;52.758;6.872;2022-09-28T00:14:25;10.63;;;4.10;;
37529;SDS011;23374;52.758;6.872;2022-09-28T00:16:46;7.17;;;4.47;;
37529;SDS011;23374;52.758;6.872;2022-09-28T00:19:07;8.57;;;4.67;;
37529;SDS011;23374;52.758;6.872;2022-09-28T00:21:30;6.17;;;4.00;;
37529;SDS011;23374;52.758;6.872;2022-09-28T00:23:54;8.70;;;4.40;;
37529;SDS011;23374;52.758;6.872;2022-09-28T00:26:32;9.63;;;4.57;;
37529;SDS011;23374;52.758;6.872;2022-09-28T00:28:53;6.97;;;4.23;;
37529;SDS011;23374;52.758;6.872;2022-09-28T00:31:17;7.60;;;3.90;;
37529;SDS011;23374;52.758;6.872;2022-09-28T00:33:37;7.43;;;4.23;;
37529;SDS011;23374;52.758;6.872;2022-09-28T00:36:00;8.70;;;4.60;;
37529;SDS011;23374;52.758;6.872;2022-09-28T00:38:20;7.73;;;4.53;;
37529;SDS011;23374;52.758;6.872;2022-09-28T00:40:40;5.57;;;3.50;;
37529;SDS011;23374;52.758;6.872;2022-09-28T00:43:16;7.23;;;4.07;;
37529;SDS011;23374;52.758;6.872;2022-09-28T00:45:39;7.53;;;4.17;;
37529;SDS011;23374;52.758;6.872;2022-09-28T00:47:59;7.50;;;4.20;;
37529;SDS011;23374;52.758;6.872;2022-09-28T00:50:28;6.07;;;3.63;;
37529;SDS011;23374;52.758;6.872;2022-09-28T00:53:15;7.80;;;4.17;;
37529;SDS011;23374;52.758;6.872;2022-09-28T00:55:45;6.87;;;4.23;;
37529;SDS011;23374;52.758;6.872;2022-09-28T00:58:11;5.90;;;3.70;;
37529;SDS011;23374;52.758;6.872;2022-09-28T01:00:37;5.53;;;4.10;;
37529;SDS011;23374;52.758;6.872;2022-09-28T01:02:59;7.00;;;4.10;;
37529;SDS011;23374;52.758;6.872;2022-09-28T01:05:19;6.50;;;3.93;;
37529;SDS011;23374;52.758;6.872;2022-09-28T01:07:43;6.43;;;3.90;;
37529;SDS011;23374;52.758;6.872;2022-09-28T01:10:05;7.10;;;4.13;;
37529;SDS011;23374;52.758;6.872;2022-09-28T01:12:27;7.73;;;4.10;;
37529;SDS011;23374;52.758;6.872;2022-09-28T01:14:48;6.53;;;3.63;;
37529;SDS011;23374;52.758;6.872;2022-09-28T01:17:16;8.97;;;4.50;;
37529;SDS011;23374;52.758;6.872;2022-09-28T01:25:19;7.83;;;4.13;;
37529;SDS011;23374;52.758;6.872;2022-09-28T01:27:53;7.83;;;4.20;;
37529;SDS011;23374;52.758;6.872;2022-09-28T01:30:19;5.90;;;3.93;;
37529;SDS011;23374;52.758;6.872;2022-09-28T01:35:51;6.27;;;4.33;;
37529;SDS011;23374;52.758;6.872;2022-09-28T01:38:42;6.47;;;4.00;;
37529;SDS011;23374;52.758;6.872;2022-09-28T01:41:08;7.00;;;3.87;;
37529;SDS011;23374;52.758;6.872;2022-09-28T01:43:31;7.60;;;4.37;;
37529;SDS011;23374;52.758;6.872;2022-09-28T01:46:10;7.70;;;4.70;;
37529;SDS011;23374;52.758;6.872;2022-09-28T01:50:33;6.30;;;3.90;;
37529;SDS011;23374;52.758;6.872;2022-09-28T01:53:07;7.87;;;4.20;;
37529;SDS011;23374;52.758;6.872;2022-09-28T01:55:44;6.20;;;3.77;;
37529;SDS011;23374;52.758;6.872;2022-09-28T01:58:27;4.83;;;3.60;;
37529;SDS011;23374;52.758;6.872;2022-09-28T02:01:01;5.23;;;3.83;;
37529;SDS011;23374;52.758;6.872;2022-09-28T02:03:53;8.13;;;4.17;;
37529;SDS011;23374;52.758;6.872;2022-09-28T02:06:39;5.97;;;3.43;;
37529;SDS011;23374;52.758;6.872;2022-09-28T02:09:17;6.73;;;4.30;;
37529;SDS011;23374;52.758;6.872;2022-09-28T02:14:17;7.10;;;3.80;;
37529;SDS011;23374;52.758;6.872;2022-09-28T02:16:42;8.50;;;4.53;;
37529;SDS011;23374;52.758;6.872;2022-09-28T02:19:04;9.47;;;4.43;;
37529;SDS011;23374;52.758;6.872;2022-09-28T02:22:00;7.93;;;4.03;;
37529;SDS011;23374;52.758;6.872;2022-09-28T02:24:43;7.53;;;3.80;;
37529;SDS011;23374;52.758;6.872;2022-09-28T02:27:13;7.00;;;4.10;;
37529;SDS011;23374;52.758;6.872;2022-09-28T02:29:38;5.67;;;3.67;;
37529;SDS011;23374;52.758;6.872;2022-09-28T02:31:58;7.53;;;3.97;;
37529;SDS011;23374;52.758;6.872;2022-09-28T02:34:19;6.03;;;4.17;;
37529;SDS011;23374;52.758;6.872;2022-09-28T02:36:40;7.90;;;4.17;;
37529;SDS011;23374;52.758;6.872;2022-09-28T02:39:00;7.00;;;4.40;;
37529;SDS011;23374;52.758;6.872;2022-09-28T02:41:37;6.73;;;4.07;;
37529;SDS011;23374;52.758;6.872;2022-09-28T02:44:28;9.37;;;4.70;;
37529;SDS011;23374;52.758;6.872;2022-09-28T02:51:48;7.87;;;4.57;;
37529;SDS011;23374;52.758;6.872;2022-09-28T03:01:02;10.17;;;5.10;;
37529;SDS011;23374;52.758;6.872;2022-09-28T03:06:25;10.57;;;5.30;;
37529;SDS011;23374;52.758;6.872;2022-09-28T03:10:55;8.60;;;4.90;;
37529;SDS011;23374;52.758;6.872;2022-09-28T03:13:24;9.13;;;4.83;;
37529;SDS011;23374;52.758;6.872;2022-09-28T03:15:47;7.60;;;4.43;;
37529;SDS011;23374;52.758;6.872;2022-09-28T03:18:07;10.87;;;5.63;;
37529;SDS011;23374;52.758;6.872;2022-09-28T03:20:28;9.70;;;4.87;;
37529;SDS011;23374;52.758;6.872;2022-09-28T03:22:49;8.73;;;4.63;;
37529;SDS011;23374;52.758;6.872;2022-09-28T03:25:09;8.27;;;4.53;;
37529;SDS011;23374;52.758;6.872;2022-09-28T03:27:30;6.47;;;4.53;;
37529;SDS011;23374;52.758;6.872;2022-09-28T03:29:50;8.10;;;4.47;;
37529;SDS011;23374;52.758;6.872;2022-09-28T03:32:10;6.47;;;4.47;;
37529;SDS011;23374;52.758;6.872;2022-09-28T03:34:31;7.40;;;4.83;;
37529;SDS011;23374;52.758;6.872;2022-09-28T03:36:51;8.07;;;4.70;;
37529;SDS011;23374;52.758;6.872;2022-09-28T03:39:11;7.77;;;4.93;;
37529;SDS011;23374;52.758;6.872;2022-09-28T03:41:31;7.87;;;4.67;;
37529;SDS011;23374;52.758;6.872;2022-09-28T03:43:51;7.50;;;4.37;;
37529;SDS011;23374;52.758;6.872;2022-09-28T03:46:12;8.67;;;4.93;;
37529;SDS011;23374;52.758;6.872;2022-09-28T03:48:34;9.27;;;4.83;;
37529;SDS011;23374;52.758;6.872;2022-09-28T03:50:55;8.13;;;5.20;;
37529;SDS011;23374;52.758;6.872;2022-09-28T03:53:17;9.80;;;4.50;;
37529;SDS011;23374;52.758;6.872;2022-09-28T03:55:38;7.03;;;4.80;;
37529;SDS011;23374;52.758;6.872;2022-09-28T03:57:58;8.17;;;4.43;;
37529;SDS011;23374;52.758;6.872;2022-09-28T04:00:18;9.07;;;5.23;;
37529;SDS011;23374;52.758;6.872;2022-09-28T04:02:39;9.97;;;5.17;;
37529;SDS011;23374;52.758;6.872;2022-09-28T04:04:59;10.43;;;5.27;;
37529;SDS011;23374;52.758;6.872;2022-09-28T04:07:19;9.87;;;5.13;;
37529;SDS011;23374;52.758;6.872;2022-09-28T04:09:40;11.17;;;5.10;;
37529;SDS011;23374;52.758;6.872;2022-09-28T04:12:00;9.50;;;5.57;;
37529;SDS011;23374;52.758;6.872;2022-09-28T04:14:21;9.23;;;5.37;;
37529;SDS011;23374;52.758;6.872;2022-09-28T04:16:41;9.33;;;5.57;;
37529;SDS011;23374;52.758;6.872;2022-09-28T04:19:01;10.20;;;5.80;;
37529;SDS011;23374;52.758;6.872;2022-09-28T04:21:22;10.27;;;5.77;;
37529;SDS011;23374;52.758;6.872;2022-09-28T04:23:43;14.20;;;5.87;;
37529;SDS011;23374;52.758;6.872;2022-09-28T04:26:05;10.40;;;5.60;;
37529;SDS011;23374;52.758;6.872;2022-09-28T04:28:35;11.67;;;6.27;;
37529;SDS011;23374;52.758;6.872;2022-09-28T04:31:17;13.23;;;6.60;;
37529;SDS011;23374;52.758;6.872;2022-09-28T04:33:38;12.20;;;6.20;;
37529;SDS011;23374;52.758;6.872;2022-09-28T04:35:59;15.67;;;6.47;;
37529;SDS011;23374;52.758;6.872;2022-09-28T04:38:20;13.47;;;6.97;;
37529;SDS011;23374;52.758;6.872;2022-09-28T04:40:40;17.13;;;7.57;;
37529;SDS011;23374;52.758;6.872;2022-09-28T04:43:00;14.30;;;7.50;;
37529;SDS011;23374;52.758;6.872;2022-09-28T04:45:21;14.30;;;7.50;;
37529;SDS011;23374;52.758;6.872;2022-09-28T04:47:44;10.87;;;6.37;;
37529;SDS011;23374;52.758;6.872;2022-09-28T04:50:05;14.60;;;7.57;;
37529;SDS011;23374;52.758;6.872;2022-09-28T04:52:26;27.57;;;8.43;;
37529;SDS011;23374;52.758;6.872;2022-09-28T04:54:47;16.20;;;8.10;;
37529;SDS011;23374;52.758;6.872;2022-09-28T04:57:07;18.77;;;8.27;;
37529;SDS011;23374;52.758;6.872;2022-09-28T04:59:27;46.97;;;8.87;;
37529;SDS011;23374;52.758;6.872;2022-09-28T05:01:47;68.20;;;8.90;;
37529;SDS011;23374;52.758;6.872;2022-09-28T05:04:08;100.07;;;10.57;;
37529;SDS011;23374;52.758;6.872;2022-09-28T05:06:28;47.70;;;9.57;;
37529;SDS011;23374;52.758;6.872;2022-09-28T05:08:49;87.47;;;9.30;;
37529;SDS011;23374;52.758;6.872;2022-09-28T05:11:11;64.70;;;9.83;;
37529;SDS011;23374;52.758;6.872;2022-09-28T05:13:39;73.70;;;10.33;;
37529;SDS011;23374;52.758;6.872;2022-09-28T05:16:01;130.97;;;9.97;;
37529;SDS011;23374;52.758;6.872;2022-09-28T05:18:21;106.60;;;10.00;;
37529;SDS011;23374;52.758;6.872;2022-09-28T05:20:42;201.17;;;12.40;;
37529;SDS011;23374;52.758;6.872;2022-09-28T05:23:02;88.17;;;10.07;;
37529;SDS011;23374;52.758;6.872;2022-09-28T05:25:23;83.30;;;8.83;;
37529;SDS011;23374;52.758;6.872;2022-09-28T05:27:43;163.07;;;11.27;;
37529;SDS011;23374;52.758;6.872;2022-09-28T05:30:05;103.27;;;10.47;;
37529;SDS011;23374;52.758;6.872;2022-09-28T05:32:26;208.10;;;10.87;;
37529;SDS011;23374;52.758;6.872;2022-09-28T05:34:46;121.37;;;11.20;;
37529;SDS011;23374;52.758;6.872;2022-09-28T05:37:07;133.93;;;11.23;;
37529;SDS011;23374;52.758;6.872;2022-09-28T05:39:27;151.77;;;12.13;;
37529;SDS011;23374;52.758;6.872;2022-09-28T05:41:48;158.63;;;12.23;;
37529;SDS011;23374;52.758;6.872;2022-09-28T05:44:09;94.20;;;11.23;;
37529;SDS011;23374;52.758;6.872;2022-09-28T05:46:29;121.97;;;11.17;;
37529;SDS011;23374;52.758;6.872;2022-09-28T05:48:50;121.87;;;11.50;;
37529;SDS011;23374;52.758;6.872;2022-09-28T05:51:13;103.73;;;11.00;;
37529;SDS011;23374;52.758;6.872;2022-09-28T05:53:34;104.83;;;11.13;;
37529;SDS011;23374;52.758;6.872;2022-09-28T05:55:58;44.90;;;9.50;;
37529;SDS011;23374;52.758;6.872;2022-09-28T05:58:19;52.77;;;8.17;;
37529;SDS011;23374;52.758;6.872;2022-09-28T06:00:39;63.10;;;9.07;;
37529;SDS011;23374;52.758;6.872;2022-09-28T06:03:01;28.97;;;8.37;;
37529;SDS011;23374;52.758;6.872;2022-09-28T06:05:23;59.77;;;8.90;;
37529;SDS011;23374;52.758;6.872;2022-09-28T06:07:43;34.80;;;8.50;;
37529;SDS011;23374;52.758;6.872;2022-09-28T06:10:05;54.77;;;8.47;;
37529;SDS011;23374;52.758;6.872;2022-09-28T06:12:26;32.40;;;7.93;;
37529;SDS011;23374;52.758;6.872;2022-09-28T06:14:46;26.73;;;7.83;;
37529;SDS011;23374;52.758;6.872;2022-09-28T06:17:07;62.53;;;8.20;;
37529;SDS011;23374;52.758;6.872;2022-09-28T06:19:28;53.10;;;8.77;;
37529;SDS011;23374;52.758;6.872;2022-09-28T06:21:48;45.53;;;8.63;;
37529;SDS011;23374;52.758;6.872;2022-09-28T06:24:08;56.63;;;7.83;;
37529;SDS011;23374;52.758;6.872;2022-09-28T06:26:29;48.20;;;8.20;;
37529;SDS011;23374;52.758;6.872;2022-09-28T06:28:50;68.63;;;9.10;;
37529;SDS011;23374;52.758;6.872;2022-09-28T06:31:10;33.80;;;7.97;;
37529;SDS011;23374;52.758;6.872;2022-09-28T06:33:31;30.80;;;7.83;;
37529;SDS011;23374;52.758;6.872;2022-09-28T06:35:51;74.87;;;7.70;;
37529;SDS011;23374;52.758;6.872;2022-09-28T06:38:11;42.40;;;6.70;;
37529;SDS011;23374;52.758;6.872;2022-09-28T06:40:32;34.97;;;6.93;;
37529;SDS011;23374;52.758;6.872;2022-09-28T06:42:57;43.83;;;7.13;;
37529;SDS011;23374;52.758;6.872;2022-09-28T06:45:26;52.93;;;7.53;;
37529;SDS011;23374;52.758;6.872;2022-09-28T06:47:52;98.03;;;9.33;;
37529;SDS011;23374;52.758;6.872;2022-09-28T06:50:16;91.63;;;9.40;;
37529;SDS011;23374;52.758;6.872;2022-09-28T06:52:37;32.93;;;7.43;;
37529;SDS011;23374;52.758;6.872;2022-09-28T06:54:58;66.83;;;8.07;;
37529;SDS011;23374;52.758;6.872;2022-09-28T06:57:18;41.77;;;7.30;;
37529;SDS011;23374;52.758;6.872;2022-09-28T06:59:39;35.57;;;6.80;;
37529;SDS011;23374;52.758;6.872;2022-09-28T07:02:00;21.67;;;5.70;;
37529;SDS011;23374;52.758;6.872;2022-09-28T07:04:20;22.13;;;6.40;;
37529;SDS011;23374;52.758;6.872;2022-09-28T07:06:45;16.27;;;6.47;;
37529;SDS011;23374;52.758;6.872;2022-09-28T07:09:06;23.43;;;7.47;;
37529;SDS011;23374;52.758;6.872;2022-09-28T07:11:27;34.13;;;6.73;;
37529;SDS011;23374;52.758;6.872;2022-09-28T07:13:48;25.43;;;7.47;;
37529;SDS011;23374;52.758;6.872;2022-09-28T07:16:08;14.47;;;6.63;;
37529;SDS011;23374;52.758;6.872;2022-09-28T07:18:28;93.53;;;8.40;;
37529;SDS011;23374;52.758;6.872;2022-09-28T07:20:48;27.23;;;7.20;;
37529;SDS011;23374;52.758;6.872;2022-09-28T07:23:09;19.33;;;6.50;;
37529;SDS011;23374;52.758;6.872;2022-09-28T07:25:29;38.13;;;6.80;;
37529;SDS011;23374;52.758;6.872;2022-09-28T07:27:54;20.07;;;6.27;;
37529;SDS011;23374;52.758;6.872;2022-09-28T07:30:16;16.77;;;7.03;;
37529;SDS011;23374;52.758;6.872;2022-09-28T07:32:36;25.93;;;7.07;;
37529;SDS011;23374;52.758;6.872;2022-09-28T07:34:57;14.43;;;6.33;;
37529;SDS011;23374;52.758;6.872;2022-09-28T07:37:18;20.50;;;6.67;;
37529;SDS011;23374;52.758;6.872;2022-09-28T07:39:38;23.93;;;6.77;;
37529;SDS011;23374;52.758;6.872;2022-09-28T07:42:18;18.27;;;6.20;;
37529;SDS011;23374;52.758;6.872;2022-09-28T07:44:38;32.07;;;7.20;;
37529;SDS011;23374;52.758;6.872;2022-09-28T07:46:59;44.33;;;7.70;;
37529;SDS011;23374;52.758;6.872;2022-09-28T07:49:21;23.10;;;7.43;;
37529;SDS011;23374;52.758;6.872;2022-09-28T07:51:41;41.83;;;8.30;;
37529;SDS011;23374;52.758;6.872;2022-09-28T07:54:04;20.40;;;7.63;;
37529;SDS011;23374;52.758;6.872;2022-09-28T07:56:25;16.43;;;6.73;;
37529;SDS011;23374;52.758;6.872;2022-09-28T07:58:45;24.27;;;7.20;;
37529;SDS011;23374;52.758;6.872;2022-09-28T08:01:08;20.60;;;7.00;;
37529;SDS011;23374;52.758;6.872;2022-09-28T08:03:29;36.93;;;6.80;;
37529;SDS011;23374;52.758;6.872;2022-09-28T08:05:49;15.00;;;6.07;;
37529;SDS011;23374;52.758;6.872;2022-09-28T08:08:09;16.60;;;6.57;;
37529;SDS011;23374;52.758;6.872;2022-09-28T08:10:30;17.53;;;5.63;;
37529;SDS011;23374;52.758;6.872;2022-09-28T08:12:58;16.63;;;6.03;;
37529;SDS011;23374;52.758;6.872;2022-09-28T08:15:22;17.43;;;6.50;;
37529;SDS011;23374;52.758;6.872;2022-09-28T08:17:45;24.17;;;5.80;;
37529;SDS011;23374;52.758;6.872;2022-09-28T08:20:07;14.83;;;6.33;;
37529;SDS011;23374;52.758;6.872;2022-09-28T08:22:46;12.20;;;6.10;;
37529;SDS011;23374;52.758;6.872;2022-09-28T08:25:07;37.77;;;6.47;;
37529;SDS011;23374;52.758;6.872;2022-09-28T08:27:27;12.23;;;6.03;;
37529;SDS011;23374;52.758;6.872;2022-09-28T08:29:48;11.60;;;5.63;;
37529;SDS011;23374;52.758;6.872;2022-09-28T08:32:09;16.83;;;5.83;;
37529;SDS011;23374;52.758;6.872;2022-09-28T08:34:29;10.97;;;5.10;;
37529;SDS011;23374;52.758;6.872;2022-09-28T08:36:49;11.13;;;5.17;;
37529;SDS011;23374;52.758;6.872;2022-09-28T08:39:10;11.33;;;5.13;;
37529;SDS011;23374;52.758;6.872;2022-09-28T08:41:59;14.93;;;5.80;;
37529;SDS011;23374;52.758;6.872;2022-09-28T08:50:31;8.40;;;4.37;;
37529;SDS011;23374;52.758;6.872;2022-09-28T08:52:56;11.17;;;5.00;;
37529;SDS011;23374;52.758;6.872;2022-09-28T08:55:32;8.93;;;5.47;;
37529;SDS011;23374;52.758;6.872;2022-09-28T08:58:10;8.73;;;4.37;;
37529;SDS011;23374;52.758;6.872;2022-09-28T09:00:40;9.87;;;4.57;;
37529;SDS011;23374;52.758;6.872;2022-09-28T09:03:06;7.67;;;4.53;;
37529;SDS011;23374;52.758;6.872;2022-09-28T09:05:52;8.80;;;4.67;;
37529;SDS011;23374;52.758;6.872;2022-09-28T09:16:40;7.80;;;4.20;;
37529;SDS011;23374;52.758;6.872;2022-09-28T09:21:13;7.27;;;4.30;;
37529;SDS011;23374;52.758;6.872;2022-09-28T09:23:55;9.27;;;4.73;;
37529;SDS011;23374;52.758;6.872;2022-09-28T09:26:26;8.80;;;5.17;;
37529;SDS011;23374;52.758;6.872;2022-09-28T09:30:17;12.07;;;5.83;;
37529;SDS011;23374;52.758;6.872;2022-09-28T09:44:36;7.83;;;3.87;;
37529;SDS011;23374;52.758;6.872;2022-09-28T09:47:29;9.20;;;4.67;;
37529;SDS011;23374;52.758;6.872;2022-09-28T09:50:17;11.57;;;4.40;;
37529;SDS011;23374;52.758;6.872;2022-09-28T09:52:53;8.10;;;4.53;;
37529;SDS011;23374;52.758;6.872;2022-09-28T09:55:57;9.63;;;4.50;;
37529;SDS011;23374;52.758;6.872;2022-09-28T09:58:43;10.83;;;4.53;;
37529;SDS011;23374;52.758;6.872;2022-09-28T10:01:13;11.00;;;4.43;;
37529;SDS011;23374;52.758;6.872;2022-09-28T10:03:39;9.77;;;4.30;;
37529;SDS011;23374;52.758;6.872;2022-09-28T10:06:05;9.37;;;4.67;;
37529;SDS011;23374;52.758;6.872;2022-09-28T10:09:09;8.77;;;4.00;;
37529;SDS011;23374;52.758;6.872;2022-09-28T10:11:44;11.50;;;4.17;;
37529;SDS011;23374;52.758;6.872;2022-09-28T10:14:15;9.17;;;4.60;;
37529;SDS011;23374;52.758;6.872;2022-09-28T10:16:39;9.60;;;4.47;;
37529;SDS011;23374;52.758;6.872;2022-09-28T10:19:01;8.87;;;3.67;;
37529;SDS011;23374;52.758;6.872;2022-09-28T10:21:22;8.27;;;4.50;;
37529;SDS011;23374;52.758;6.872;2022-09-28T10:23:43;7.87;;;3.80;;
37529;SDS011;23374;52.758;6.872;2022-09-28T10:26:08;6.97;;;4.20;;
37529;SDS011;23374;52.758;6.872;2022-09-28T10:28:48;8.30;;;4.13;;
37529;SDS011;23374;52.758;6.872;2022-09-28T10:35:25;9.10;;;4.33;;
37529;SDS011;23374;52.758;6.872;2022-09-28T10:38:16;11.57;;;4.23;;
37529;SDS011;23374;52.758;6.872;2022-09-28T10:40:48;6.73;;;3.33;;
37529;SDS011;23374;52.758;6.872;2022-09-28T10:43:30;8.90;;;4.13;;
37529;SDS011;23374;52.758;6.872;2022-09-28T10:46:11;7.27;;;4.43;;
37529;SDS011;23374;52.758;6.872;2022-09-28T10:48:49;7.43;;;4.23;;
37529;SDS011;23374;52.758;6.872;2022-09-28T10:51:17;8.33;;;4.13;;
37529;SDS011;23374;52.758;6.872;2022-09-28T10:53:37;9.80;;;4.27;;
37529;SDS011;23374;52.758;6.872;2022-09-28T10:56:04;6.03;;;3.37;;
37529;SDS011;23374;52.758;6.872;2022-09-28T10:58:38;5.80;;;3.33;;
37529;SDS011;23374;52.758;6.872;2022-09-28T11:01:06;5.13;;;3.10;;
37529;SDS011;23374;52.758;6.872;2022-09-28T11:03:30;9.83;;;4.30;;
37529;SDS011;23374;52.758;6.872;2022-09-28T11:06:26;8.43;;;3.77;;
37529;SDS011;23374;52.758;6.872;2022-09-28T11:08:48;6.93;;;3.53;;
37529;SDS011;23374;52.758;6.872;2022-09-28T11:11:14;5.70;;;3.20;;
37529;SDS011;23374;52.758;6.872;2022-09-28T11:13:51;5.50;;;2.80;;
37529;SDS011;23374;52.758;6.872;2022-09-28T11:16:30;6.00;;;2.70;;
37529;SDS011;23374;52.758;6.872;2022-09-28T11:18:54;5.63;;;2.87;;
37529;SDS011;23374;52.758;6.872;2022-09-28T11:21:24;5.87;;;3.03;;
37529;SDS011;23374;52.758;6.872;2022-09-28T11:24:04;6.40;;;3.93;;
37529;SDS011;23374;52.758;6.872;2022-09-28T11:26:38;5.63;;;3.73;;
37529;SDS011;23374;52.758;6.872;2022-09-28T11:29:04;6.93;;;3.03;;
37529;SDS011;23374;52.758;6.872;2022-09-28T11:31:26;4.90;;;2.57;;
37529;SDS011;23374;52.758;6.872;2022-09-28T11:33:48;5.33;;;3.03;;
37529;SDS011;23374;52.758;6.872;2022-09-28T11:36:23;6.10;;;3.30;;
37529;SDS011;23374;52.758;6.872;2022-09-28T11:41:53;5.97;;;2.80;;
37529;SDS011;23374;52.758;6.872;2022-09-28T11:44:44;6.60;;;3.53;;
37529;SDS011;23374;52.758;6.872;2022-09-28T11:48:47;6.43;;;3.10;;
37529;SDS011;23374;52.758;6.872;2022-09-28T11:51:22;4.00;;;2.47;;
37529;SDS011;23374;52.758;6.872;2022-09-28T11:53:51;7.10;;;2.33;;
37529;SDS011;23374;52.758;6.872;2022-09-28T11:56:51;4.30;;;2.40;;
37529;SDS011;23374;52.758;6.872;2022-09-28T11:59:28;5.27;;;2.43;;
37529;SDS011;23374;52.758;6.872;2022-09-28T12:01:57;3.43;;;2.03;;
37529;SDS011;23374;52.758;6.872;2022-09-28T12:04:41;4.97;;;1.73;;
37529;SDS011;23374;52.758;6.872;2022-09-28T12:07:28;3.57;;;2.00;;
37529;SDS011;23374;52.758;6.872;2022-09-28T12:10:09;2.93;;;1.50;;
37529;SDS011;23374;52.758;6.872;2022-09-28T12:12:57;4.83;;;2.37;;
37529;SDS011;23374;52.758;6.872;2022-09-28T12:15:24;3.23;;;1.87;;
37529;SDS011;23374;52.758;6.872;2022-09-28T12:18:49;2.53;;;1.90;;
37529;SDS011;23374;52.758;6.872;2022-09-28T12:22:17;2.70;;;2.00;;
37529;SDS011;23374;52.758;6.872;2022-09-28T12:24:44;2.17;;;1.57;;
37529;SDS011;23374;52.758;6.872;2022-09-28T12:27:27;5.10;;;1.87;;
37529;SDS011;23374;52.758;6.872;2022-09-28T12:30:18;3.83;;;1.80;;
37529;SDS011;23374;52.758;6.872;2022-09-28T12:33:00;3.90;;;2.10;;
37529;SDS011;23374;52.758;6.872;2022-09-28T12:46:18;3.90;;;1.50;;
37529;SDS011;23374;52.758;6.872;2022-09-28T12:54:26;3.07;;;1.30;;
37529;SDS011;23374;52.758;6.872;2022-09-28T12:58:45;3.50;;;1.37;;
37529;SDS011;23374;52.758;6.872;2022-09-28T13:11:42;7.60;;;0.80;;
37529;SDS011;23374;52.758;6.872;2022-09-28T13:18:40;2.50;;;0.93;;
37529;SDS011;23374;52.758;6.872;2022-09-28T13:26:39;1.73;;;0.70;;
37529;SDS011;23374;52.758;6.872;2022-09-28T13:29:10;3.07;;;1.00;;
37529;SDS011;23374;52.758;6.872;2022-09-28T13:31:32;3.17;;;0.90;;
37529;SDS011;23374;52.758;6.872;2022-09-28T13:33:56;1.50;;;0.70;;
37529;SDS011;23374;52.758;6.872;2022-09-28T13:36:40;2.30;;;0.73;;
37529;SDS011;23374;52.758;6.872;2022-09-28T13:39:01;0.87;;;0.50;;
37529;SDS011;23374;52.758;6.872;2022-09-28T13:41:38;1.10;;;0.80;;
37529;SDS011;23374;52.758;6.872;2022-09-28T13:44:26;1.93;;;1.10;;
37529;SDS011;23374;52.758;6.872;2022-09-28T13:48:15;1.90;;;0.90;;
37529;SDS011;23374;52.758;6.872;2022-09-28T13:55:50;1.07;;;0.87;;
37529;SDS011;23374;52.758;6.872;2022-09-28T14:02:36;2.60;;;1.07;;
37529;SDS011;23374;52.758;6.872;2022-09-28T14:08:27;1.23;;;0.70;;
37529;SDS011;23374;52.758;6.872;2022-09-28T14:28:50;1.53;;;0.50;;
37529;SDS011;23374;52.758;6.872;2022-09-28T14:31:39;0.30;;;0.30;;
37529;SDS011;23374;52.758;6.872;2022-09-28T14:34:02;0.70;;;0.40;;
37529;SDS011;23374;52.758;6.872;2022-09-28T14:36:31;0.40;;;0.30;;
37529;SDS011;23374;52.758;6.872;2022-09-28T14:39:20;0.30;;;0.20;;
37529;SDS011;23374;52.758;6.872;2022-09-28T14:42:10;0.30;;;0.30;;
37529;SDS011;23374;52.758;6.872;2022-09-28T14:48:13;0.20;;;0.10;;
37529;SDS011;23374;52.758;6.872;2022-09-28T14:50:38;0.00;;;0.00;;
37529;SDS011;23374;52.758;6.872;2022-09-28T14:53:08;0.47;;;0.20;;
37529;SDS011;23374;52.758;6.872;2022-09-28T14:55:39;0.73;;;0.10;;
37529;SDS011;23374;52.758;6.872;2022-09-28T14:58:22;0.10;;;0.10;;
37529;SDS011;23374;52.758;6.872;2022-09-28T15:00:44;0.10;;;0.00;;
37529;SDS011;23374;52.758;6.872;2022-09-28T15:03:05;1.73;;;0.10;;
37529;SDS011;23374;52.758;6.872;2022-09-28T15:05:34;0.10;;;0.10;;
37529;SDS011;23374;52.758;6.872;2022-09-28T15:08:05;0.10;;;0.10;;
37529;SDS011;23374;52.758;6.872;2022-09-28T15:10:31;0.87;;;0.30;;
37529;SDS011;23374;52.758;6.872;2022-09-28T15:13:03;0.10;;;0.10;;
37529;SDS011;23374;52.758;6.872;2022-09-28T15:15:38;1.00;;;0.20;;
37529;SDS011;23374;52.758;6.872;2022-09-28T15:18:31;1.70;;;0.30;;
37529;SDS011;23374;52.758;6.872;2022-09-28T15:21:43;0.17;;;0.10;;
37529;SDS011;23374;52.758;6.872;2022-09-28T15:25:58;0.60;;;0.23;;
37529;SDS011;23374;52.758;6.872;2022-09-28T15:28:21;1.47;;;0.43;;
37529;SDS011;23374;52.758;6.872;2022-09-28T15:30:43;0.87;;;0.40;;
37529;SDS011;23374;52.758;6.872;2022-09-28T15:33:04;2.10;;;0.40;;
37529;SDS011;23374;52.758;6.872;2022-09-28T15:39:30;0.40;;;0.30;;
37529;SDS011;23374;52.758;6.872;2022-09-28T15:41:52;0.83;;;0.30;;
37529;SDS011;23374;52.758;6.872;2022-09-28T15:44:33;1.10;;;0.30;;
37529;SDS011;23374;52.758;6.872;2022-09-28T15:47:12;1.03;;;0.50;;
37529;SDS011;23374;52.758;6.872;2022-09-28T15:49:56;3.97;;;0.73;;
37529;SDS011;23374;52.758;6.872;2022-09-28T15:52:44;1.87;;;0.50;;
37529;SDS011;23374;52.758;6.872;2022-09-28T15:55:22;1.03;;;0.37;;
37529;SDS011;23374;52.758;6.872;2022-09-28T15:57:49;1.33;;;0.40;;
37529;SDS011;23374;52.758;6.872;2022-09-28T16:00:25;1.17;;;0.50;;
37529;SDS011;23374;52.758;6.872;2022-09-28T16:03:30;1.80;;;0.60;;
37529;SDS011;23374;52.758;6.872;2022-09-28T16:06:04;3.87;;;0.90;;
37529;SDS011;23374;52.758;6.872;2022-09-28T16:08:44;0.73;;;0.50;;
37529;SDS011;23374;52.758;6.872;2022-09-28T16:11:13;4.77;;;0.90;;
37529;SDS011;23374;52.758;6.872;2022-09-28T16:14:18;3.00;;;0.87;;
37529;SDS011;23374;52.758;6.872;2022-09-28T16:16:47;1.50;;;0.77;;
37529;SDS011;23374;52.758;6.872;2022-09-28T16:19:27;0.90;;;0.70;;
37529;SDS011;23374;52.758;6.872;2022-09-28T16:21:50;0.80;;;0.63;;
37529;SDS011;23374;52.758;6.872;2022-09-28T16:24:25;3.00;;;0.90;;
37529;SDS011;23374;52.758;6.872;2022-09-28T16:27:01;1.90;;;0.70;;
37529;SDS011;23374;52.758;6.872;2022-09-28T16:30:01;3.10;;;1.03;;
37529;SDS011;23374;52.758;6.872;2022-09-28T16:32:52;3.90;;;1.10;;
37529;SDS011;23374;52.758;6.872;2022-09-28T16:36:10;1.77;;;0.97;;
37529;SDS011;23374;52.758;6.872;2022-09-28T16:38:33;1.10;;;0.93;;
37529;SDS011;23374;52.758;6.872;2022-09-28T16:40:56;2.70;;;1.43;;
37529;SDS011;23374;52.758;6.872;2022-09-28T16:43:25;1.37;;;1.17;;
37529;SDS011;23374;52.758;6.872;2022-09-28T16:45:47;2.53;;;1.10;;
37529;SDS011;23374;52.758;6.872;2022-09-28T16:48:12;2.23;;;1.37;;
37529;SDS011;23374;52.758;6.872;2022-09-28T16:50:38;3.90;;;1.60;;
37529;SDS011;23374;52.758;6.872;2022-09-28T16:53:00;2.73;;;1.37;;
37529;SDS011;23374;52.758;6.872;2022-09-28T16:55:50;2.33;;;1.20;;
37529;SDS011;23374;52.758;6.872;2022-09-28T16:58:11;2.47;;;1.17;;
37529;SDS011;23374;52.758;6.872;2022-09-28T17:00:31;5.23;;;1.50;;
37529;SDS011;23374;52.758;6.872;2022-09-28T17:02:52;4.43;;;1.43;;
37529;SDS011;23374;52.758;6.872;2022-09-28T17:05:16;1.67;;;1.17;;
37529;SDS011;23374;52.758;6.872;2022-09-28T17:07:40;1.83;;;1.37;;
37529;SDS011;23374;52.758;6.872;2022-09-28T17:10:01;3.27;;;1.90;;
37529;SDS011;23374;52.758;6.872;2022-09-28T17:12:31;5.63;;;1.50;;
37529;SDS011;23374;52.758;6.872;2022-09-28T17:14:51;1.77;;;1.20;;